Sea Angel — WCZ2413 — position and weather

sailwx.info

Track history (hours):
 
Tides and Currents Weather Stations Pressure Air Temp Water Temp Dewpoint Dewpoint Depression Visibility Wind Speed Wind Dir Waves Ship Positions

Sea Angel

Owner: NOGGLE, CHARLES C, SNOHOMISH, WA. More information available from US FCC via Universal Licensing System and Coast Guard Vessel Documentation Center.

Last reported at 2017-Dec-01 18:58 UTC. Time now 2017-Dec-14 08:23 UTC.
Position N 48°00' W 122°13'.
Warning: this ship's position is 12 days out of date.

Length 14 m.

Type: Fishing. MMSI: 367403960.

Date/timePositionNaut miles runAvg speedWind from/ knotsBaromVisibWave heightAir tempDewpointWater temp
2017-Dec-01 18:58N 48°00' W 122°13'3 5.6
2017-Dec-01 18:21N 47°58' W 122°17'0 0.2
2017-Dec-01 17:58N 47°58' W 122°17'2 3.4
2017-Dec-01 17:27N 47°59' W 122°15'2 0.1
2017-Nov-30 19:46N 48°00' W 122°13'2 5.9
2017-Nov-30 19:30N 47°59' W 122°15'2 3.8
2017-Nov-30 18:59N 47°57' W 122°17'1 1.1
2017-Nov-30 18:30N 47°58' W 122°16'0 0.7
2017-Nov-30 18:00N 47°58' W 122°17'2 3.2
2017-Nov-30 17:30N 47°59' W 122°15'2 0.1
2017-Nov-29 19:25N 47°60' W 122°13'3 6.2
2017-Nov-29 18:59N 47°58' W 122°16'1 2.6
2017-Nov-29 18:30N 47°59' W 122°15'2 0.4
2017-Nov-29 13:28N 48°00' W 122°13'0 0.0
2017-Nov-29 12:58N 48°00' W 122°13'0 0.0
2017-Nov-29 10:34N 48°00' W 122°13'0 0.0
2017-Nov-29 10:28N 48°00' W 122°13'0 0.0
2017-Nov-29 09:58N 48°00' W 122°13'0 0.0
2017-Nov-27 13:46N 48°00' W 122°13'0 0.0
2017-Nov-27 12:40N 48°00' W 122°13'0 0.0
2017-Nov-27 12:22N 48°00' W 122°13'0 0.0
2017-Nov-27 10:16N 48°00' W 122°13'0 0.0
2017-Nov-27 09:52N 48°00' W 122°13'0 0.0
2017-Nov-27 05:40N 48°00' W 122°13'0 0.0
2017-Nov-27 01:04N 48°00' W 122°13'0 0.0
2017-Nov-27 00:40N 48°00' W 122°13'0 0.0
2017-Nov-27 00:10N 48°00' W 122°13'0 0.0
2017-Nov-26 23:46N 48°00' W 122°13'0 0.0
2017-Nov-26 23:10N 48°00' W 122°13'0 0.0
2017-Nov-26 22:13N 48°00' W 122°13'0 0.0
2017-Nov-26 14:22N 48°00' W 122°13'0 0.0
2017-Nov-26 13:58N 48°00' W 122°13'0 0.0
2017-Nov-26 13:10N 48°00' W 122°13'0 0.0
2017-Nov-26 11:07N 48°00' W 122°13'0 0.0
2017-Nov-26 10:52N 48°00' W 122°13'0 0.0
2017-Nov-26 10:22N 48°00' W 122°13'0 0.0
2017-Nov-26 05:40N 48°00' W 122°13'0 0.0
2017-Nov-26 03:52N 48°00' W 122°13'0 0.0
2017-Nov-26 03:10N 48°00' W 122°13'0 0.0
2017-Nov-26 02:34N 48°00' W 122°13'0 0.0
2017-Nov-26 02:04N 48°00' W 122°13'0 0.0
2017-Nov-26 01:58N 48°00' W 122°13'0 0.0
2017-Nov-25 14:49N 48°00' W 122°13'0 0.0
2017-Nov-25 13:34N 48°00' W 122°13'0 0.0
2017-Nov-25 13:22N 48°00' W 122°13'0 0.0
2017-Nov-25 12:52N 48°00' W 122°13'0 0.0
2017-Nov-25 12:04N 48°00' W 122°13'0 0.0
2017-Nov-25 11:46N 48°00' W 122°13'0 0.0
2017-Nov-25 11:28N 48°00' W 122°13'0 0.0
2017-Nov-25 10:55N 48°00' W 122°13'0 0.0
2017-Nov-25 10:28N 48°00' W 122°13'0 0.0
2017-Nov-25 09:58N 48°00' W 122°13'0 0.0
2017-Nov-25 09:16N 48°00' W 122°13'0 0.0
2017-Nov-25 08:58N 48°00' W 122°13'0 0.0
2017-Nov-25 08:22N 48°00' W 122°13'0 0.0
2017-Nov-25 07:55N 48°00' W 122°13'0 0.0
2017-Nov-25 07:13N 48°00' W 122°13'0 0.0
2017-Nov-25 06:43N 48°00' W 122°13'0 0.0
2017-Nov-25 06:28N 48°00' W 122°13'0 0.0
2017-Nov-25 04:46N 48°00' W 122°13'0 0.0
2017-Nov-25 03:34N 48°00' W 122°13'0 0.0
2017-Nov-25 03:22N 48°00' W 122°13'0 0.0
2017-Nov-24 22:10N 48°00' W 122°13'0 0.0
2017-Nov-24 21:19N 48°00' W 122°13'0 0.0
2017-Nov-24 20:46N 48°00' W 122°13'0 0.0
2017-Nov-24 19:16N 48°00' W 122°13'0 0.0
2017-Nov-24 18:58N 48°00' W 122°13'0 0.0
2017-Nov-24 17:22N 48°00' W 122°13'0 0.0
2017-Nov-24 12:34N 48°00' W 122°13'0 0.0
2017-Nov-24 11:22N 48°00' W 122°13'0 0.0
2017-Nov-24 10:52N 48°00' W 122°13'0 0.0
2017-Nov-24 09:58N 48°00' W 122°13'0 0.0
2017-Nov-24 09:28N 48°00' W 122°13'0 0.0
2017-Nov-24 08:58N 48°00' W 122°13'0 0.0
2017-Nov-24 08:25N 48°00' W 122°13'0 0.0
2017-Nov-24 07:58N 48°00' W 122°13'0 0.0
2017-Nov-24 06:40N 48°00' W 122°13'0 0.0
2017-Nov-24 06:28N 48°00' W 122°13'0 0.0
2017-Nov-24 05:46N 48°00' W 122°13'0 0.0
2017-Nov-24 02:58N 48°00' W 122°13'0 0.0
2017-Nov-24 02:04N 48°00' W 122°13'0 0.0
2017-Nov-24 01:52N 48°00' W 122°13'0 0.0
2017-Nov-24 01:28N 48°00' W 122°13'0 0.0
2017-Nov-24 00:58N 48°00' W 122°13'0 0.0
2017-Nov-24 00:04N 48°00' W 122°13'0 0.0
2017-Nov-23 22:58N 48°00' W 122°13'0 0.0
2017-Nov-23 22:10N 48°00' W 122°13'0 0.0
2017-Nov-23 21:46N 48°00' W 122°13'0 0.0
2017-Nov-23 21:28N 48°00' W 122°13'0 0.0
2017-Nov-23 20:58N 48°00' W 122°13'0 0.0
2017-Nov-23 20:28N 48°00' W 122°13'0 0.0
2017-Nov-23 19:58N 48°00' W 122°13'0 0.0
2017-Nov-23 19:04N 48°00' W 122°13'0 0.0
2017-Nov-23 15:52N 48°00' W 122°13'0 0.0
2017-Nov-23 14:58N 48°00' W 122°13'0 0.0
2017-Nov-23 13:34N 48°00' W 122°13'0 0.0
2017-Nov-23 13:28N 48°00' W 122°13'0 0.0
2017-Nov-23 12:58N 48°00' W 122°13'0 0.0
2017-Nov-23 10:58N 48°00' W 122°13'0 0.0
2017-Nov-23 08:28N 48°00' W 122°13'0 0.0
2017-Nov-23 07:58N 48°00' W 122°13'0 0.0
2017-Nov-23 07:22N 48°00' W 122°13'0 0.0
2017-Nov-23 06:52N 48°00' W 122°13'0 0.0
2017-Nov-23 06:22N 48°00' W 122°13'0 0.0
2017-Nov-23 05:52N 48°00' W 122°13'0 0.0
2017-Nov-23 05:16N 48°00' W 122°13'0 0.0
2017-Nov-23 04:58N 48°00' W 122°13'0 0.0
2017-Nov-23 04:22N 48°00' W 122°13'0 0.0
2017-Nov-23 03:22N 48°00' W 122°13'0 0.0
2017-Nov-23 02:46N 48°00' W 122°13'0 0.0
2017-Nov-23 02:04N 48°00' W 122°13'0 0.0
2017-Nov-23 01:40N 48°00' W 122°13'0 0.0
2017-Nov-23 01:25N 48°00' W 122°13'0 0.0
2017-Nov-23 00:16N 48°00' W 122°13'0 0.0
2017-Nov-22 23:55N 48°00' W 122°13'0 0.0
2017-Nov-22 23:28N 48°00' W 122°13'0 0.0
2017-Nov-22 22:40N 48°00' W 122°13'0 0.0
2017-Nov-22 22:10N 48°00' W 122°13'0 0.0
2017-Nov-22 21:58N 48°00' W 122°13'0 0.0
2017-Nov-22 19:52N 48°00' W 122°13'0 0.0
2017-Nov-22 19:16N 48°00' W 122°13'  
Track history (hours):
 
Tides and Currents Weather Stations Pressure Air Temp Water Temp Dewpoint Dewpoint Depression Visibility Wind Speed Wind Dir Waves Ship Positions

Sea Angel

Owner: NOGGLE, CHARLES C, SNOHOMISH, WA. More information available from US FCC via Universal Licensing System and Coast Guard Vessel Documentation Center.

Last reported at 2017-Dec-01 18:58 UTC. Time now 2017-Dec-14 08:23 UTC.
Position N 48°00' W 122°13'.
Warning: this ship's position is 12 days out of date.

Length 14 m.

Type: Fishing. MMSI: 367403960.

Date/timePositionNaut miles runAvg speedWind from/ knotsBaromVisibWave heightAir tempDewpointWater temp
2017-Dec-01 18:58N 48°00' W 122°13'3 5.6
2017-Dec-01 18:21N 47°58' W 122°17'0 0.2
2017-Dec-01 17:58N 47°58' W 122°17'2 3.4
2017-Dec-01 17:27N 47°59' W 122°15'2 0.1
2017-Nov-30 19:46N 48°00' W 122°13'2 5.9
2017-Nov-30 19:30N 47°59' W 122°15'2 3.8
2017-Nov-30 18:59N 47°57' W 122°17'1 1.1
2017-Nov-30 18:30N 47°58' W 122°16'0 0.7
2017-Nov-30 18:00N 47°58' W 122°17'2 3.2
2017-Nov-30 17:30N 47°59' W 122°15'2 0.1
2017-Nov-29 19:25N 47°60' W 122°13'3 6.2
2017-Nov-29 18:59N 47°58' W 122°16'1 2.6
2017-Nov-29 18:30N 47°59' W 122°15'2 0.4
2017-Nov-29 13:28N 48°00' W 122°13'0 0.0
2017-Nov-29 12:58N 48°00' W 122°13'0 0.0
2017-Nov-29 10:34N 48°00' W 122°13'0 0.0
2017-Nov-29 10:28N 48°00' W 122°13'0 0.0
2017-Nov-29 09:58N 48°00' W 122°13'0 0.0
2017-Nov-27 13:46N 48°00' W 122°13'0 0.0
2017-Nov-27 12:40N 48°00' W 122°13'0 0.0
2017-Nov-27 12:22N 48°00' W 122°13'0 0.0
2017-Nov-27 10:16N 48°00' W 122°13'0 0.0
2017-Nov-27 09:52N 48°00' W 122°13'0 0.0
2017-Nov-27 05:40N 48°00' W 122°13'0 0.0
2017-Nov-27 01:04N 48°00' W 122°13'0 0.0
2017-Nov-27 00:40N 48°00' W 122°13'0 0.0
2017-Nov-27 00:10N 48°00' W 122°13'0 0.0
2017-Nov-26 23:46N 48°00' W 122°13'0 0.0
2017-Nov-26 23:10N 48°00' W 122°13'0 0.0
2017-Nov-26 22:13N 48°00' W 122°13'0 0.0
2017-Nov-26 14:22N 48°00' W 122°13'0 0.0
2017-Nov-26 13:58N 48°00' W 122°13'0 0.0
2017-Nov-26 13:10N 48°00' W 122°13'0 0.0
2017-Nov-26 11:07N 48°00' W 122°13'0 0.0
2017-Nov-26 10:52N 48°00' W 122°13'0 0.0
2017-Nov-26 10:22N 48°00' W 122°13'0 0.0
2017-Nov-26 05:40N 48°00' W 122°13'0 0.0
2017-Nov-26 03:52N 48°00' W 122°13'0 0.0
2017-Nov-26 03:10N 48°00' W 122°13'0 0.0
2017-Nov-26 02:34N 48°00' W 122°13'0 0.0
2017-Nov-26 02:04N 48°00' W 122°13'0 0.0
2017-Nov-26 01:58N 48°00' W 122°13'0 0.0
2017-Nov-25 14:49N 48°00' W 122°13'0 0.0
2017-Nov-25 13:34N 48°00' W 122°13'0 0.0
2017-Nov-25 13:22N 48°00' W 122°13'0 0.0
2017-Nov-25 12:52N 48°00' W 122°13'0 0.0
2017-Nov-25 12:04N 48°00' W 122°13'0 0.0
2017-Nov-25 11:46N 48°00' W 122°13'0 0.0
2017-Nov-25 11:28N 48°00' W 122°13'0 0.0
2017-Nov-25 10:55N 48°00' W 122°13'0 0.0
2017-Nov-25 10:28N 48°00' W 122°13'0 0.0
2017-Nov-25 09:58N 48°00' W 122°13'0 0.0
2017-Nov-25 09:16N 48°00' W 122°13'0 0.0
2017-Nov-25 08:58N 48°00' W 122°13'0 0.0
2017-Nov-25 08:22N 48°00' W 122°13'0 0.0
2017-Nov-25 07:55N 48°00' W 122°13'0 0.0
2017-Nov-25 07:13N 48°00' W 122°13'0 0.0
2017-Nov-25 06:43N 48°00' W 122°13'0 0.0
2017-Nov-25 06:28N 48°00' W 122°13'0 0.0
2017-Nov-25 04:46N 48°00' W 122°13'0 0.0
2017-Nov-25 03:34N 48°00' W 122°13'0 0.0
2017-Nov-25 03:22N 48°00' W 122°13'0 0.0
2017-Nov-24 22:10N 48°00' W 122°13'0 0.0
2017-Nov-24 21:19N 48°00' W 122°13'0 0.0
2017-Nov-24 20:46N 48°00' W 122°13'0 0.0
2017-Nov-24 19:16N 48°00' W 122°13'0 0.0
2017-Nov-24 18:58N 48°00' W 122°13'0 0.0
2017-Nov-24 17:22N 48°00' W 122°13'0 0.0
2017-Nov-24 12:34N 48°00' W 122°13'0 0.0
2017-Nov-24 11:22N 48°00' W 122°13'0 0.0
2017-Nov-24 10:52N 48°00' W 122°13'0 0.0
2017-Nov-24 09:58N 48°00' W 122°13'0 0.0
2017-Nov-24 09:28N 48°00' W 122°13'0 0.0
2017-Nov-24 08:58N 48°00' W 122°13'0 0.0
2017-Nov-24 08:25N 48°00' W 122°13'0 0.0
2017-Nov-24 07:58N 48°00' W 122°13'0 0.0
2017-Nov-24 06:40N 48°00' W 122°13'0 0.0
2017-Nov-24 06:28N 48°00' W 122°13'0 0.0
2017-Nov-24 05:46N 48°00' W 122°13'0 0.0
2017-Nov-24 02:58N 48°00' W 122°13'0 0.0
2017-Nov-24 02:04N 48°00' W 122°13'0 0.0
2017-Nov-24 01:52N 48°00' W 122°13'0 0.0
2017-Nov-24 01:28N 48°00' W 122°13'0 0.0
2017-Nov-24 00:58N 48°00' W 122°13'0 0.0
2017-Nov-24 00:04N 48°00' W 122°13'0 0.0
2017-Nov-23 22:58N 48°00' W 122°13'0 0.0
2017-Nov-23 22:10N 48°00' W 122°13'0 0.0
2017-Nov-23 21:46N 48°00' W 122°13'0 0.0
2017-Nov-23 21:28N 48°00' W 122°13'0 0.0
2017-Nov-23 20:58N 48°00' W 122°13'0 0.0
2017-Nov-23 20:28N 48°00' W 122°13'0 0.0
2017-Nov-23 19:58N 48°00' W 122°13'0 0.0
2017-Nov-23 19:04N 48°00' W 122°13'0 0.0
2017-Nov-23 15:52N 48°00' W 122°13'0 0.0
2017-Nov-23 14:58N 48°00' W 122°13'0 0.0
2017-Nov-23 13:34N 48°00' W 122°13'0 0.0
2017-Nov-23 13:28N 48°00' W 122°13'0 0.0
2017-Nov-23 12:58N 48°00' W 122°13'0 0.0
2017-Nov-23 10:58N 48°00' W 122°13'0 0.0
2017-Nov-23 08:28N 48°00' W 122°13'0 0.0
2017-Nov-23 07:58N 48°00' W 122°13'0 0.0
2017-Nov-23 07:22N 48°00' W 122°13'0 0.0
2017-Nov-23 06:52N 48°00' W 122°13'0 0.0
2017-Nov-23 06:22N 48°00' W 122°13'0 0.0
2017-Nov-23 05:52N 48°00' W 122°13'0 0.0
2017-Nov-23 05:16N 48°00' W 122°13'0 0.0
2017-Nov-23 04:58N 48°00' W 122°13'0 0.0
2017-Nov-23 04:22N 48°00' W 122°13'0 0.0
2017-Nov-23 03:22N 48°00' W 122°13'0 0.0
2017-Nov-23 02:46N 48°00' W 122°13'0 0.0
2017-Nov-23 02:04N 48°00' W 122°13'0 0.0
2017-Nov-23 01:40N 48°00' W 122°13'0 0.0
2017-Nov-23 01:25N 48°00' W 122°13'0 0.0
2017-Nov-23 00:16N 48°00' W 122°13'0 0.0
2017-Nov-22 23:55N 48°00' W 122°13'0 0.0
2017-Nov-22 23:28N 48°00' W 122°13'0 0.0
2017-Nov-22 22:40N 48°00' W 122°13'0 0.0
2017-Nov-22 22:10N 48°00' W 122°13'0 0.0
2017-Nov-22 21:58N 48°00' W 122°13'0 0.0
2017-Nov-22 19:52N 48°00' W 122°13'0 0.0
2017-Nov-22 19:16N 48°00' W 122°13'  

Dump ship's entire track history